MHLM/SAP METAR and TAF weather

Enter ICAO airport designator
Station Type Date Time Source
MHLM METAR 2020/09/18 01:00 UTC NOAA

MHLM 180100Z 01005KT 9999 TS FEW028CB SCT250 29/26 Q1009 A2980 NOSIG


Station Type Date Time Source
MHLM Decoded METAR 2020/09/18 01:00 UTC NOAA

La Mesa San Pedro Sula , Honduras (MHLM) 15-27N 087-56W 31M
Sep 17, 2020 - 09:00 PM EDT / 2020.09.18 0100 UTC
Wind: from the N (010 degrees) at 6 MPH (5 KT):0
Visibility: greater than 7 mile(s):0
Sky conditions: partly cloudy
Weather: thunder; Cumulonimbus clouds observed
Temperature: 84 F (29 C)
Dew Point: 78 F (26 C)
Relative Humidity: 83%
Pressure (altimeter): 29.8 in. Hg (1009 hPa)
ob: MHLM 180100Z 01005KT 9999 TS FEW028CB SCT250 29/26 Q1009 A2980 NOSIG
cycle: 1

Station Type Date Time Source
MHLM TAF 2020/09/18 06:54 UTC NOAA

TAF MHLM 180400Z 1806/1906 21004KT 9999 SCT028TCU SCT080 TX35/1819Z TN24/1812Z
BECMG 1809/1811 FEW025 SCT080
BECMG 1815/1817 02012KT SCT030TCU
TEMPO 1821/1901 7000 -TSRA SCT028CB SCT080
BECMG 1901/1903 20003KT 9999 NSW

Example: see airport list